Time;durP1;ratioP1;P1;durP2;ratioP2;P2;SDS_P1;SDS_P2;PMS_P1;PMS_P2;Temp;Humidity;BMP_temperature;BMP_pressure;BME280_temperature;BME280_humidity;BME280_pressure;Samples;Min_cycle;Max_cycle;Signal;HPM_P1;HPM_P2
2023/06/16 04:25:09;;;;;;;13.30;7.20;;;;;;;16.30;100.00;99905.47;6606740;27;276464;-89
2023/06/16 04:28:14;;;;;;;12.82;6.87;;;;;;;16.30;100.00;99905.47;6584134;27;33347;-89
2023/06/16 04:31:20;;;;;;;11.10;7.15;;;;;;;15.85;100.00;99917.06;6583827;27;34634;-89
2023/06/16 04:34:23;;;;;;;14.13;7.37;;;;;;;15.91;100.00;99910.37;6587684;27;33531;-89
2023/06/16 04:37:26;;;;;;;7.70;6.70;;;;;;;16.07;100.00;99914.53;6584954;27;33912;-89
2023/06/16 04:40:31;;;;;;;9.15;6.45;;;;;;;16.13;100.00;99909.53;6583828;27;35201;-89
2023/06/16 04:43:34;;;;;;;9.25;6.65;;;;;;;16.30;100.00;99904.66;6586706;27;35116;-90
2023/06/16 04:46:38;;;;;;;9.05;6.95;;;;;;;16.55;100.00;99905.31;6585161;27;35246;-92
2023/06/16 04:49:55;;;;;;;8.43;6.75;;;;;;;16.65;100.00;99900.03;6587061;27;35128;31
2023/06/16 04:52:59;;;;;;;9.18;7.15;;;;;;;16.78;100.00;99905.22;6560769;27;33475;-90
2023/06/16 04:56:02;;;;;;;9.20;6.30;;;;;;;17.09;100.00;99905.34;6561454;27;34429;-90
2023/06/16 04:59:05;;;;;;;11.77;7.45;;;;;;;17.29;100.00;99900.13;6560134;27;33873;-90
2023/06/16 05:02:08;;;;;;;9.15;6.80;;;;;;;17.64;100.00;99904.25;6560922;27;34126;-91
2023/06/16 05:05:11;;;;;;;9.18;6.47;;;;;;;17.97;99.83;99898.72;6561662;27;33663;-90
2023/06/16 05:08:14;;;;;;;8.10;6.37;;;;;;;18.18;98.33;99896.84;6562166;27;34043;-90
2023/06/16 05:11:17;;;;;;;8.63;6.50;;;;;;;18.27;92.39;99903.25;6564626;27;34437;-90
2023/06/16 05:14:19;;;;;;;7.68;6.55;;;;;;;18.43;92.00;99909.87;6600759;27;33573;-91
2023/06/16 05:17:22;;;;;;;9.25;6.40;;;;;;;18.37;89.31;99908.63;6595226;27;35778;-90
2023/06/16 05:20:25;;;;;;;10.98;6.72;;;;;;;18.34;90.45;99903.50;6587877;27;33532;-90
2023/06/16 05:23:28;;;;;;;14.80;7.05;;;;;;;18.32;89.21;99909.00;6584470;27;34232;-91
2023/06/16 05:30:16;;;;;;;9.32;6.03;;;;;;;18.64;87.50;99899.03;6578406;27;20056;-90
2023/06/16 05:33:20;;;;;;;7.18;6.07;;;;;;;18.78;84.76;99904.97;6578130;27;33805;-90
2023/06/16 05:36:24;;;;;;;9.88;6.25;;;;;;;18.80;85.00;99905.69;6581150;27;34158;-91
2023/06/16 05:39:28;;;;;;;7.32;6.18;;;;;;;19.00;84.04;99911.88;6583692;27;35066;-91
2023/06/16 05:42:33;;;;;;;10.50;6.20;;;;;;;19.09;83.70;99910.22;6588664;27;34958;-91
2023/06/16 05:45:39;;;;;;;8.13;5.95;;;;;;;19.18;84.35;99913.88;6590823;27;34185;-91
2023/06/16 05:48:44;;;;;;;8.55;6.25;;;;;;;19.50;82.77;99918.03;6582647;27;34558;-91
2023/06/16 05:51:48;;;;;;;10.02;5.75;;;;;;;19.53;80.27;99921.28;6582443;27;33850;-91
2023/06/16 05:54:50;;;;;;;8.70;6.10;;;;;;;19.59;80.93;99922.56;6581243;27;36044;-91
2023/06/16 05:57:56;;;;;;;6.80;5.87;;;;;;;19.37;81.55;99921.91;6581037;27;33655;-91
2023/06/16 06:00:58;;;;;;;8.70;5.93;;;;;;;19.70;78.62;99918.00;6587593;27;34097;-86
2023/06/16 06:04:02;;;;;;;8.85;6.45;;;;;;;20.24;77.51;99930.81;6583058;27;33859;-86
2023/06/16 06:07:05;;;;;;;12.52;6.40;;;;;;;20.55;75.36;99925.94;6578855;27;33415;-86
2023/06/16 06:10:09;;;;;;;10.57;5.95;;;;;;;20.89;72.22;99923.56;6588901;27;33746;-87
2023/06/16 06:13:12;;;;;;;6.97;6.20;;;;;;;21.16;70.58;99919.94;6593895;27;35167;-90
2023/06/16 06:16:16;;;;;;;10.00;6.15;;;;;;;21.63;68.59;99926.81;6579459;27;33628;-91
2023/06/16 06:19:22;;;;;;;7.00;6.30;;;;;;;22.09;67.83;99925.72;6578878;27;34019;-91
2023/06/16 06:22:31;;;;;;;7.18;6.25;;;;;;;22.26;63.61;99925.75;6579093;27;33426;-86
2023/06/16 06:25:35;;;;;;;8.93;6.20;;;;;;;22.27;63.57;99928.31;6581030;27;34626;-89
2023/06/16 06:28:37;;;;;;;8.35;6.32;;;;;;;21.96;64.77;99930.75;6581838;27;34007;-89
2023/06/16 06:31:40;;;;;;;11.48;6.22;;;;;;;22.09;65.63;99925.72;6585947;27;34012;-89
2023/06/16 06:34:44;;;;;;;11.15;6.30;;;;;;;22.05;67.18;99929.75;6586824;27;33668;-88
2023/06/16 06:37:47;;;;;;;9.30;6.40;;;;;;;21.88;68.62;99929.66;6579489;27;33383;-89
2023/06/16 06:40:50;;;;;;;8.07;6.00;;;;;;;21.88;67.58;99934.25;6580850;27;33603;-89
2023/06/16 06:43:53;;;;;;;8.23;6.32;;;;;;;21.63;69.50;99932.22;6581227;27;33674;-88
2023/06/16 06:47:10;;;;;;;12.05;6.30;;;;;;;21.23;71.61;99942.56;6580442;27;34551;-86
2023/06/16 06:50:13;;;;;;;9.25;6.12;;;;;;;21.30;72.13;99940.09;6580667;27;33828;-87
2023/06/16 06:53:16;;;;;;;8.20;6.40;;;;;;;20.85;76.36;99947.31;6578843;27;33804;-90
2023/06/16 06:56:22;;;;;;;9.57;5.62;;;;;;;20.96;76.45;99941.69;6589753;27;34629;-90
2023/06/16 07:03:04;;;;;;;8.77;6.10;;;;;;;21.53;75.98;99939.59;6584283;27;20054;-86
2023/06/16 07:06:07;;;;;;;8.65;6.40;;;;;;;21.88;72.43;99943.16;6581138;27;34125;-86
2023/06/16 07:09:10;;;;;;;11.07;6.75;;;;;;;21.02;75.86;99939.37;6582930;27;33820;-87
2023/06/16 07:12:28;;;;;;;9.35;6.45;;;;;;;21.11;76.07;99938.41;6581965;27;33920;-90
2023/06/16 07:19:16;;;;;;;11.60;6.60;;;;;;;20.93;76.65;99950.09;6579599;27;20084;-88
2023/06/16 07:37:32;;;;;;;9.43;6.68;;;;;;;20.58;81.81;99943.66;6586882;27;20435;-88
2023/06/16 07:40:35;;;;;;;10.30;6.85;;;;;;;20.94;81.18;99948.22;6582202;27;33779;-89
2023/06/16 07:43:38;;;;;;;11.52;6.80;;;;;;;21.50;79.21;99951.53;6581194;27;34086;-90
2023/06/16 07:46:45;;;;;;;12.05;7.25;;;;;;;22.10;74.75;99950.88;6583267;27;33749;-90
2023/06/16 07:49:48;;;;;;;9.07;6.85;;;;;;;22.18;71.24;99956.31;6589082;27;33608;-87
2023/06/16 07:52:51;;;;;;;8.07;6.87;;;;;;;21.67;72.31;99955.19;6595903;27;34694;-89
2023/06/16 07:55:53;;;;;;;9.15;6.55;;;;;;;21.56;73.83;99958.16;6586106;27;33690;-88
2023/06/16 07:58:56;;;;;;;14.85;6.93;;;;;;;21.96;71.34;99952.34;6581554;27;34461;-88
2023/06/16 08:02:02;;;;;;;11.05;7.05;;;;;;;22.20;71.48;99962.41;6580091;27;34277;-89
2023/06/16 08:05:05;;;;;;;7.22;6.28;;;;;;;21.85;72.21;99967.81;6580359;27;34758;-86
2023/06/16 08:08:07;;;;;;;13.95;7.20;;;;;;;22.42;70.25;99960.94;6579697;27;34788;-87
2023/06/16 08:14:56;;;;;;;13.55;7.10;;;;;;;22.90;68.08;99957.69;6587624;27;20071;-90
2023/06/16 08:29:30;;;;;;;8.27;7.00;;;;;;;22.45;67.89;99962.47;6584311;27;20064;-89
2023/06/16 08:32:33;;;;;;;10.05;6.80;;;;;;;23.35;65.19;99957.38;6582716;27;33868;-91
2023/06/16 08:35:36;;;;;;;7.75;6.95;;;;;;;23.46;64.48;99956.19;6580512;27;34275;-91
2023/06/16 08:38:39;;;;;;;8.07;6.60;;;;;;;23.37;61.52;99958.91;6589810;27;34860;-90
2023/06/16 08:41:46;;;;;;;7.35;6.60;;;;;;;23.63;62.47;99957.84;6583928;27;32943;-91
2023/06/16 08:44:52;;;;;;;10.63;6.22;;;;;;;23.75;59.97;99960.19;6586005;27;34544;-89
2023/06/16 08:47:54;;;;;;;6.68;5.97;;;;;;;23.75;56.71;99962.91;6580709;27;33504;-90
2023/06/16 08:54:47;;;;;;;8.48;6.15;;;;;;;23.82;54.21;99964.75;6591656;27;20038;-90
2023/06/16 08:57:58;;;;;;;6.12;5.60;;;;;;;23.85;55.99;99962.72;6595025;27;34086;-88
2023/06/16 09:01:02;;;;;;;9.65;5.40;;;;;;;23.94;52.95;99967.94;6572579;27;34650;-89
2023/06/16 09:04:08;;;;;;;7.80;5.70;;;;;;;24.22;53.46;99959.41;6570652;27;34631;-88
2023/06/16 09:07:16;;;;;;;13.65;6.05;;;;;;;24.18;54.69;99957.22;6563561;27;34540;-89
2023/06/16 09:10:19;;;;;;;6.57;5.55;;;;;;;24.28;54.65;99952.41;6570813;27;35807;-89
2023/06/16 10:42:07;;;;;;;6.18;5.53;;;;;;;29.37;36.36;99898.19;6584195;27;20402;-88
2023/06/16 10:45:31;;;;;;;8.27;6.05;;;;;;;29.46;36.17;99899.63;6582563;27;33567;-87
2023/06/16 10:48:57;;;;;;;5.90;5.30;;;;;;;28.51;38.06;99902.31;6581326;27;34692;-87
2023/06/16 10:52:02;;;;;;;7.45;5.43;;;;;;;27.15;41.86;99896.38;6583916;27;33899;-88
2023/06/16 10:55:25;;;;;;;6.37;5.43;;;;;;;27.33;40.98;99897.75;6582843;27;34551;-87
2023/06/16 10:58:29;;;;;;;8.40;5.75;;;;;;;27.08;41.08;99907.22;6581455;27;33995;-87
2023/06/16 11:01:32;;;;;;;6.53;5.53;;;;;;;26.48;43.26;99886.53;6583239;27;33978;-86
2023/06/16 11:04:35;;;;;;;9.15;5.72;;;;;;;25.40;47.12;99881.59;6583733;27;34928;-86
2023/06/16 11:07:46;;;;;;;7.62;5.70;;;;;;;25.80;48.16;99881.34;6584236;27;33939;-88
2023/06/16 11:10:51;;;;;;;6.50;5.53;;;;;;;26.74;45.96;99882.41;6587718;27;33939;-88
2023/06/16 11:48:52;;;;;;;6.25;5.35;;;;;;;27.14;43.50;99875.62;6571071;27;20057;-87
2023/06/16 11:51:56;;;;;;;6.00;5.35;;;;;;;26.94;43.06;99868.16;6505387;27;33774;-88
2023/06/16 11:55:00;;;;;;;5.62;5.12;;;;;;;26.39;45.63;99862.41;6500668;27;34271;-88
2023/06/16 11:58:03;;;;;;;5.80;4.90;;;;;;;26.54;44.96;99856.91;6500224;27;34255;-88
2023/06/16 12:01:08;;;;;;;6.22;5.22;;;;;;;27.05;43.88;99855.87;6501070;27;34484;-88
2023/06/16 12:04:11;;;;;;;8.40;5.35;;;;;;;28.09;41.80;99842.41;6499446;27;34503;-88
2023/06/16 12:07:14;;;;;;;7.35;5.25;;;;;;;27.59;43.37;99850.81;6499072;27;33700;-88
2023/06/16 12:10:17;;;;;;;7.78;5.55;;;;;;;28.17;42.40;99844.12;6499323;27;33899;-88
2023/06/16 12:13:24;;;;;;;5.30;4.90;;;;;;;27.48;43.65;99843.16;6495080;27;33628;-88
2023/06/16 12:16:30;;;;;;;7.57;5.40;;;;;;;27.62;41.07;99844.12;6500294;27;34109;-89
2023/06/16 12:19:34;;;;;;;9.30;5.43;;;;;;;27.43;43.41;99843.78;6505397;27;33670;-89
2023/06/16 12:22:39;;;;;;;6.87;4.90;;;;;;;27.31;44.27;99840.78;6549011;27;34739;-88
2023/06/16 12:25:42;;;;;;;6.43;4.90;;;;;;;27.92;41.15;99841.09;6545860;27;34018;-88
2023/06/16 12:28:45;;;;;;;5.20;4.80;;;;;;;28.21;38.02;99839.91;6554612;27;33076;-87
2023/06/16 12:32:05;;;;;;;5.47;4.97;;;;;;;27.33;39.82;99838.69;6550251;27;33848;-88
2023/06/16 12:35:10;;;;;;;6.35;5.47;;;;;;;26.89;41.77;99827.91;6555046;27;34517;-86
2023/06/16 12:53:15;;;;;;;6.68;6.07;;;;;;;26.06;45.71;99821.06;6554793;27;20061;-89
2023/06/16 13:00:14;;;;;;;8.15;6.00;;;;;;;27.01;44.52;99813.78;6554189;27;20040;-87
2023/06/16 13:07:03;;;;;;;5.93;5.37;;;;;;;26.23;45.67;99810.78;6563580;27;20642;-88
2023/06/16 13:10:06;;;;;;;6.32;5.70;;;;;;;26.48;45.08;99810.41;6560894;27;34834;-87
2023/06/16 13:13:09;;;;;;;5.97;5.37;;;;;;;26.55;42.61;99798.75;6557721;27;33825;-88
2023/06/16 13:16:12;;;;;;;6.22;5.62;;;;;;;25.77;44.56;99792.91;6558483;27;33924;-87
2023/06/16 13:19:15;;;;;;;6.75;5.70;;;;;;;25.90;44.76;99797.66;6559514;27;34211;-87
2023/06/16 13:22:18;;;;;;;6.65;5.50;;;;;;;26.32;44.51;99805.22;6560559;27;33961;-89
2023/06/16 13:25:21;;;;;;;7.22;5.80;;;;;;;26.42;44.37;99802.19;6567372;27;34907;-88
2023/06/16 13:28:23;;;;;;;8.68;5.82;;;;;;;26.34;43.58;99793.13;6558117;27;33859;-88
2023/06/16 13:31:26;;;;;;;6.15;5.55;;;;;;;26.07;46.11;99800.12;6550382;27;35051;-87
2023/06/16 13:34:29;;;;;;;6.53;5.93;;;;;;;25.95;45.73;99795.19;6555768;27;34084;-87
2023/06/16 13:37:32;;;;;;;6.43;5.82;;;;;;;25.63;45.23;99791.06;6555703;27;34710;-87
2023/06/16 13:40:35;;;;;;;6.35;5.50;;;;;;;25.45;47.89;99786.84;6559906;27;34659;-91
2023/06/16 14:25:50;;;;;;;14.13;6.50;;;;;;;25.03;47.67;99753.91;6550600;27;20084;-90
2023/06/16 14:28:53;;;;;;;10.45;6.53;;;;;;;25.10;48.60;99756.72;6554023;27;34344;-91
2023/06/16 14:42:56;;;;;;;7.35;6.62;;;;;;;24.53;48.70;99745.41;6549457;27;20322;-90
2023/06/16 14:45:59;;;;;;;8.02;7.22;;;;;;;24.90;47.22;99739.12;6549150;27;34997;-90
2023/06/16 14:49:02;;;;;;;8.82;6.47;;;;;;;24.92;50.05;99744.38;6540946;27;33777;-90
2023/06/16 14:52:06;;;;;;;6.97;6.28;;;;;;;24.86;48.41;99742.41;6549777;27;34193;-89
2023/06/16 14:55:08;;;;;;;10.93;6.50;;;;;;;25.25;46.89;99746.69;6548629;27;34026;-90
2023/06/16 15:01:57;;;;;;;11.98;6.72;;;;;;;25.03;49.09;99756.63;6560398;27;20057;-90
2023/06/16 15:05:00;;;;;;;9.70;7.62;;;;;;;24.52;52.27;99762.69;6556046;27;36576;-89
2023/06/16 15:08:02;;;;;;;15.00;7.65;;;;;;;23.76;63.51;99753.41;6554249;27;33880;-88
2023/06/16 15:11:06;;;;;;;11.02;7.45;;;;;;;22.61;74.56;99759.00;6555786;27;33951;-88
2023/06/16 15:14:08;;;;;;;11.43;7.30;;;;;;;21.46;83.72;99747.81;6559973;27;33848;-89
2023/06/16 15:17:11;;;;;;;8.50;7.03;;;;;;;20.22;91.37;99745.19;6559841;27;34258;-88
2023/06/16 15:20:17;;;;;;;6.60;5.85;;;;;;;19.81;86.67;99750.94;6559598;27;35194;-88
2023/06/16 15:23:27;;;;;;;8.75;6.12;;;;;;;19.39;82.72;99745.12;6553440;27;35603;31
2023/06/16 15:29:59;;;;;;;7.05;5.45;;;;;;;19.75;78.04;99747.03;6552057;27;33584;-89
